sensor_id;sensor_type;location;lat;lon;timestamp;P1;durP1;ratioP1;P2;durP2;ratioP2
51020;SDS011;38907;45.562;8.856;2023-12-20T00:00:53;38.22;;;26.50;;
51020;SDS011;38907;45.562;8.856;2023-12-20T00:05:55;36.92;;;26.88;;
51020;SDS011;38907;45.562;8.856;2023-12-20T00:10:58;36.53;;;26.92;;
51020;SDS011;38907;45.562;8.856;2023-12-20T00:16:00;31.73;;;23.33;;
51020;SDS011;38907;45.562;8.856;2023-12-20T00:21:02;33.97;;;24.50;;
51020;SDS011;38907;45.562;8.856;2023-12-20T00:26:05;40.50;;;25.48;;
51020;SDS011;38907;45.562;8.856;2023-12-20T00:31:07;37.65;;;25.27;;
51020;SDS011;38907;45.562;8.856;2023-12-20T00:36:09;32.30;;;24.67;;
51020;SDS011;38907;45.562;8.856;2023-12-20T00:41:12;31.50;;;23.00;;
51020;SDS011;38907;45.562;8.856;2023-12-20T00:46:14;33.38;;;23.65;;
51020;SDS011;38907;45.562;8.856;2023-12-20T00:51:16;36.35;;;25.85;;
51020;SDS011;38907;45.562;8.856;2023-12-20T00:56:19;36.85;;;24.40;;
51020;SDS011;38907;45.562;8.856;2023-12-20T01:01:21;34.15;;;24.27;;
51020;SDS011;38907;45.562;8.856;2023-12-20T01:06:23;42.97;;;28.33;;
51020;SDS011;38907;45.562;8.856;2023-12-20T01:11:26;49.92;;;33.05;;
51020;SDS011;38907;45.562;8.856;2023-12-20T01:16:28;67.95;;;42.70;;
51020;SDS011;38907;45.562;8.856;2023-12-20T01:21:29;48.83;;;35.20;;
51020;SDS011;38907;45.562;8.856;2023-12-20T01:26:33;31.20;;;23.60;;
51020;SDS011;38907;45.562;8.856;2023-12-20T01:31:34;32.70;;;23.83;;
51020;SDS011;38907;45.562;8.856;2023-12-20T01:36:36;33.45;;;23.33;;
51020;SDS011;38907;45.562;8.856;2023-12-20T01:41:39;30.05;;;22.50;;
51020;SDS011;38907;45.562;8.856;2023-12-20T01:46:41;29.52;;;22.08;;
51020;SDS011;38907;45.562;8.856;2023-12-20T01:51:43;30.55;;;21.58;;
51020;SDS011;38907;45.562;8.856;2023-12-20T01:56:47;26.40;;;21.83;;
51020;SDS011;38907;45.562;8.856;2023-12-20T02:01:51;40.00;;;28.23;;
51020;SDS011;38907;45.562;8.856;2023-12-20T02:06:53;37.45;;;26.60;;
51020;SDS011;38907;45.562;8.856;2023-12-20T02:17:00;34.90;;;25.45;;
51020;SDS011;38907;45.562;8.856;2023-12-20T02:22:07;34.25;;;24.10;;
51020;SDS011;38907;45.562;8.856;2023-12-20T02:27:10;31.30;;;22.38;;
51020;SDS011;38907;45.562;8.856;2023-12-20T02:32:12;32.65;;;23.42;;
51020;SDS011;38907;45.562;8.856;2023-12-20T02:37:15;30.95;;;21.83;;
51020;SDS011;38907;45.562;8.856;2023-12-20T02:42:17;32.70;;;23.27;;
51020;SDS011;38907;45.562;8.856;2023-12-20T02:47:19;31.08;;;22.33;;
51020;SDS011;38907;45.562;8.856;2023-12-20T02:52:22;30.75;;;20.77;;
51020;SDS011;38907;45.562;8.856;2023-12-20T02:57:24;27.38;;;20.48;;
51020;SDS011;38907;45.562;8.856;2023-12-20T03:02:26;29.23;;;20.23;;
51020;SDS011;38907;45.562;8.856;2023-12-20T03:07:29;28.75;;;20.65;;
51020;SDS011;38907;45.562;8.856;2023-12-20T03:12:31;27.25;;;20.48;;
51020;SDS011;38907;45.562;8.856;2023-12-20T03:17:33;25.63;;;19.23;;
51020;SDS011;38907;45.562;8.856;2023-12-20T03:22:36;27.40;;;19.63;;
51020;SDS011;38907;45.562;8.856;2023-12-20T03:27:38;26.08;;;19.75;;
51020;SDS011;38907;45.562;8.856;2023-12-20T03:32:39;28.35;;;19.85;;
51020;SDS011;38907;45.562;8.856;2023-12-20T03:37:42;26.02;;;19.50;;
51020;SDS011;38907;45.562;8.856;2023-12-20T03:42:44;26.98;;;19.77;;
51020;SDS011;38907;45.562;8.856;2023-12-20T03:47:46;29.88;;;19.88;;
51020;SDS011;38907;45.562;8.856;2023-12-20T03:52:50;32.65;;;20.80;;
51020;SDS011;38907;45.562;8.856;2023-12-20T03:57:51;41.42;;;24.45;;
51020;SDS011;38907;45.562;8.856;2023-12-20T04:02:53;30.85;;;21.40;;
51020;SDS011;38907;45.562;8.856;2023-12-20T04:07:56;32.55;;;21.90;;
51020;SDS011;38907;45.562;8.856;2023-12-20T04:18:00;32.45;;;23.85;;
51020;SDS011;38907;45.562;8.856;2023-12-20T04:23:03;29.00;;;21.42;;
51020;SDS011;38907;45.562;8.856;2023-12-20T04:28:05;25.45;;;19.85;;
51020;SDS011;38907;45.562;8.856;2023-12-20T04:33:07;23.17;;;17.92;;
51020;SDS011;38907;45.562;8.856;2023-12-20T04:38:10;23.25;;;18.00;;
51020;SDS011;38907;45.562;8.856;2023-12-20T04:43:12;24.45;;;16.98;;
51020;SDS011;38907;45.562;8.856;2023-12-20T04:48:14;25.77;;;18.45;;
51020;SDS011;38907;45.562;8.856;2023-12-20T04:53:17;21.80;;;17.88;;
51020;SDS011;38907;45.562;8.856;2023-12-20T04:58:19;25.85;;;18.88;;
51020;SDS011;38907;45.562;8.856;2023-12-20T05:03:20;25.35;;;17.63;;
51020;SDS011;38907;45.562;8.856;2023-12-20T05:08:24;26.75;;;17.98;;
51020;SDS011;38907;45.562;8.856;2023-12-20T05:13:26;24.60;;;16.95;;
51020;SDS011;38907;45.562;8.856;2023-12-20T05:18:27;28.17;;;18.05;;
51020;SDS011;38907;45.562;8.856;2023-12-20T05:23:31;24.45;;;17.30;;
51020;SDS011;38907;45.562;8.856;2023-12-20T05:28:33;26.63;;;17.80;;
51020;SDS011;38907;45.562;8.856;2023-12-20T05:33:34;19.92;;;15.38;;
51020;SDS011;38907;45.562;8.856;2023-12-20T05:38:38;19.90;;;14.88;;
51020;SDS011;38907;45.562;8.856;2023-12-20T05:43:40;19.98;;;15.90;;
51020;SDS011;38907;45.562;8.856;2023-12-20T05:48:42;29.52;;;20.27;;
51020;SDS011;38907;45.562;8.856;2023-12-20T05:53:45;29.02;;;21.70;;
51020;SDS011;38907;45.562;8.856;2023-12-20T05:58:47;28.35;;;20.63;;
51020;SDS011;38907;45.562;8.856;2023-12-20T06:03:49;23.45;;;17.55;;
51020;SDS011;38907;45.562;8.856;2023-12-20T06:08:52;28.65;;;18.10;;
51020;SDS011;38907;45.562;8.856;2023-12-20T06:13:53;31.48;;;19.48;;
51020;SDS011;38907;45.562;8.856;2023-12-20T06:18:55;27.23;;;19.35;;
51020;SDS011;38907;45.562;8.856;2023-12-20T06:23:59;30.65;;;19.77;;
51020;SDS011;38907;45.562;8.856;2023-12-20T06:34:02;25.38;;;19.73;;
51020;SDS011;38907;45.562;8.856;2023-12-20T06:39:06;30.30;;;20.48;;
51020;SDS011;38907;45.562;8.856;2023-12-20T06:44:08;28.17;;;19.20;;
51020;SDS011;38907;45.562;8.856;2023-12-20T06:49:10;27.60;;;21.88;;
51020;SDS011;38907;45.562;8.856;2023-12-20T06:54:13;24.63;;;19.85;;
51020;SDS011;38907;45.562;8.856;2023-12-20T06:59:15;27.45;;;19.77;;
51020;SDS011;38907;45.562;8.856;2023-12-20T07:04:17;33.13;;;23.90;;
51020;SDS011;38907;45.562;8.856;2023-12-20T07:09:23;37.35;;;25.30;;
51020;SDS011;38907;45.562;8.856;2023-12-20T07:14:25;40.53;;;26.23;;
51020;SDS011;38907;45.562;8.856;2023-12-20T07:19:27;35.78;;;22.73;;
51020;SDS011;38907;45.562;8.856;2023-12-20T07:24:31;32.85;;;21.92;;
51020;SDS011;38907;45.562;8.856;2023-12-20T07:29:33;32.38;;;21.02;;
51020;SDS011;38907;45.562;8.856;2023-12-20T07:34:34;27.95;;;21.13;;
51020;SDS011;38907;45.562;8.856;2023-12-20T07:39:39;32.92;;;23.33;;
51020;SDS011;38907;45.562;8.856;2023-12-20T07:44:41;37.60;;;25.15;;
51020;SDS011;38907;45.562;8.856;2023-12-20T07:49:43;46.17;;;32.50;;
51020;SDS011;38907;45.562;8.856;2023-12-20T07:54:46;38.80;;;27.25;;
51020;SDS011;38907;45.562;8.856;2023-12-20T07:59:48;34.05;;;26.27;;
51020;SDS011;38907;45.562;8.856;2023-12-20T08:04:49;40.20;;;25.60;;
51020;SDS011;38907;45.562;8.856;2023-12-20T08:09:53;38.92;;;27.67;;
51020;SDS011;38907;45.562;8.856;2023-12-20T08:14:56;36.50;;;24.90;;
51020;SDS011;38907;45.562;8.856;2023-12-20T08:19:58;39.58;;;25.85;;
51020;SDS011;38907;45.562;8.856;2023-12-20T08:25:02;61.08;;;33.28;;
51020;SDS011;38907;45.562;8.856;2023-12-20T08:30:16;50.25;;;32.63;;
51020;SDS011;38907;45.562;8.856;2023-12-20T08:35:20;57.17;;;38.47;;
51020;SDS011;38907;45.562;8.856;2023-12-20T08:40:24;51.95;;;32.35;;
51020;SDS011;38907;45.562;8.856;2023-12-20T08:45:25;45.10;;;28.67;;
51020;SDS011;38907;45.562;8.856;2023-12-20T08:50:27;36.13;;;25.08;;
51020;SDS011;38907;45.562;8.856;2023-12-20T08:55:31;33.70;;;22.30;;
51020;SDS011;38907;45.562;8.856;2023-12-20T09:00:33;28.33;;;19.75;;
51020;SDS011;38907;45.562;8.856;2023-12-20T09:05:34;30.77;;;19.40;;
51020;SDS011;38907;45.562;8.856;2023-12-20T09:10:38;30.02;;;19.83;;
51020;SDS011;38907;45.562;8.856;2023-12-20T09:15:40;31.27;;;20.58;;
51020;SDS011;38907;45.562;8.856;2023-12-20T09:20:42;23.85;;;18.17;;
51020;SDS011;38907;45.562;8.856;2023-12-20T09:25:45;24.60;;;17.98;;
51020;SDS011;38907;45.562;8.856;2023-12-20T09:30:46;34.75;;;19.98;;
51020;SDS011;38907;45.562;8.856;2023-12-20T09:35:48;26.45;;;18.92;;
51020;SDS011;38907;45.562;8.856;2023-12-20T09:40:51;30.08;;;19.13;;
51020;SDS011;38907;45.562;8.856;2023-12-20T09:45:54;28.52;;;17.42;;
51020;SDS011;38907;45.562;8.856;2023-12-20T09:51:02;26.30;;;18.83;;
51020;SDS011;38907;45.562;8.856;2023-12-20T09:56:06;28.67;;;19.90;;
51020;SDS011;38907;45.562;8.856;2023-12-20T10:11:14;27.53;;;21.13;;
51020;SDS011;38907;45.562;8.856;2023-12-20T10:16:16;33.45;;;23.13;;
51020;SDS011;38907;45.562;8.856;2023-12-20T10:21:18;37.20;;;26.50;;
51020;SDS011;38907;45.562;8.856;2023-12-20T10:26:21;41.65;;;29.40;;
51020;SDS011;38907;45.562;8.856;2023-12-20T10:31:27;48.13;;;32.05;;
51020;SDS011;38907;45.562;8.856;2023-12-20T10:36:30;46.67;;;30.00;;
51020;SDS011;38907;45.562;8.856;2023-12-20T10:41:34;43.42;;;27.88;;
51020;SDS011;38907;45.562;8.856;2023-12-20T10:46:41;43.45;;;28.85;;
51020;SDS011;38907;45.562;8.856;2023-12-20T10:51:49;44.25;;;27.75;;
51020;SDS011;38907;45.562;8.856;2023-12-20T10:56:55;36.60;;;26.30;;
51020;SDS011;38907;45.562;8.856;2023-12-20T11:01:59;33.13;;;26.13;;
51020;SDS011;38907;45.562;8.856;2023-12-20T11:07:07;35.03;;;26.65;;
51020;SDS011;38907;45.562;8.856;2023-12-20T11:12:20;33.13;;;23.55;;
51020;SDS011;38907;45.562;8.856;2023-12-20T11:17:26;36.47;;;24.23;;
51020;SDS011;38907;45.562;8.856;2023-12-20T11:22:29;32.22;;;23.42;;
51020;SDS011;38907;45.562;8.856;2023-12-20T11:27:33;32.70;;;23.55;;
51020;SDS011;38907;45.562;8.856;2023-12-20T11:32:36;29.88;;;21.58;;
51020;SDS011;38907;45.562;8.856;2023-12-20T11:37:38;31.10;;;21.30;;
51020;SDS011;38907;45.562;8.856;2023-12-20T11:42:44;30.48;;;21.55;;
51020;SDS011;38907;45.562;8.856;2023-12-20T11:47:49;27.75;;;21.20;;
51020;SDS011;38907;45.562;8.856;2023-12-20T11:52:54;27.35;;;19.33;;
51020;SDS011;38907;45.562;8.856;2023-12-20T11:57:57;33.72;;;20.52;;
51020;SDS011;38907;45.562;8.856;2023-12-20T12:02:59;28.92;;;20.05;;
51020;SDS011;38907;45.562;8.856;2023-12-20T12:08:03;26.45;;;19.92;;
51020;SDS011;38907;45.562;8.856;2023-12-20T12:13:07;23.90;;;19.23;;
51020;SDS011;38907;45.562;8.856;2023-12-20T12:18:09;39.35;;;30.15;;
51020;SDS011;38907;45.562;8.856;2023-12-20T12:23:11;33.20;;;23.05;;
51020;SDS011;38907;45.562;8.856;2023-12-20T12:28:14;23.80;;;20.17;;
51020;SDS011;38907;45.562;8.856;2023-12-20T12:33:17;27.05;;;20.13;;
51020;SDS011;38907;45.562;8.856;2023-12-20T12:38:20;27.17;;;21.88;;
51020;SDS011;38907;45.562;8.856;2023-12-20T12:48:25;24.92;;;18.65;;
51020;SDS011;38907;45.562;8.856;2023-12-20T12:53:28;22.87;;;18.63;;
51020;SDS011;38907;45.562;8.856;2023-12-20T12:58:31;25.05;;;19.33;;
51020;SDS011;38907;45.562;8.856;2023-12-20T13:03:34;22.17;;;18.30;;
51020;SDS011;38907;45.562;8.856;2023-12-20T13:08:36;26.77;;;18.53;;
51020;SDS011;38907;45.562;8.856;2023-12-20T13:13:39;25.42;;;18.10;;
51020;SDS011;38907;45.562;8.856;2023-12-20T13:18:41;25.02;;;20.33;;
51020;SDS011;38907;45.562;8.856;2023-12-20T13:23:43;25.73;;;20.20;;
51020;SDS011;38907;45.562;8.856;2023-12-20T13:28:46;26.48;;;22.40;;
51020;SDS011;38907;45.562;8.856;2023-12-20T13:33:48;30.50;;;23.60;;
51020;SDS011;38907;45.562;8.856;2023-12-20T13:38:52;33.30;;;24.27;;
51020;SDS011;38907;45.562;8.856;2023-12-20T13:43:55;29.23;;;24.10;;
51020;SDS011;38907;45.562;8.856;2023-12-20T13:48:57;31.52;;;23.70;;
51020;SDS011;38907;45.562;8.856;2023-12-20T13:53:59;28.70;;;23.27;;
51020;SDS011;38907;45.562;8.856;2023-12-20T13:59:02;33.33;;;24.90;;
51020;SDS011;38907;45.562;8.856;2023-12-20T14:04:04;32.45;;;24.10;;
51020;SDS011;38907;45.562;8.856;2023-12-20T14:09:06;29.85;;;24.20;;
51020;SDS011;38907;45.562;8.856;2023-12-20T14:14:10;31.42;;;25.35;;
51020;SDS011;38907;45.562;8.856;2023-12-20T14:19:12;29.98;;;26.48;;
51020;SDS011;38907;45.562;8.856;2023-12-20T14:24:13;33.20;;;26.00;;
51020;SDS011;38907;45.562;8.856;2023-12-20T14:29:17;31.98;;;26.98;;
51020;SDS011;38907;45.562;8.856;2023-12-20T14:34:18;29.40;;;25.42;;
51020;SDS011;38907;45.562;8.856;2023-12-20T14:39:20;30.48;;;27.10;;
51020;SDS011;38907;45.562;8.856;2023-12-20T14:44:24;32.85;;;26.92;;
51020;SDS011;38907;45.562;8.856;2023-12-20T14:49:26;43.42;;;27.33;;
51020;SDS011;38907;45.562;8.856;2023-12-20T14:54:28;30.77;;;26.05;;
51020;SDS011;38907;45.562;8.856;2023-12-20T14:59:31;30.33;;;25.73;;
51020;SDS011;38907;45.562;8.856;2023-12-20T15:04:33;39.85;;;27.65;;
51020;SDS011;38907;45.562;8.856;2023-12-20T15:09:35;34.97;;;26.20;;
51020;SDS011;38907;45.562;8.856;2023-12-20T15:14:38;34.70;;;27.73;;
51020;SDS011;38907;45.562;8.856;2023-12-20T15:19:41;38.88;;;29.83;;
51020;SDS011;38907;45.562;8.856;2023-12-20T15:24:43;38.93;;;29.73;;
51020;SDS011;38907;45.562;8.856;2023-12-20T15:29:47;33.70;;;29.85;;
51020;SDS011;38907;45.562;8.856;2023-12-20T15:34:49;41.05;;;30.90;;
51020;SDS011;38907;45.562;8.856;2023-12-20T15:39:52;35.55;;;30.98;;
51020;SDS011;38907;45.562;8.856;2023-12-20T15:44:55;35.95;;;29.77;;
51020;SDS011;38907;45.562;8.856;2023-12-20T15:49:57;36.90;;;31.23;;
51020;SDS011;38907;45.562;8.856;2023-12-20T15:54:59;43.97;;;32.22;;
51020;SDS011;38907;45.562;8.856;2023-12-20T16:00:03;44.50;;;32.92;;
51020;SDS011;38907;45.562;8.856;2023-12-20T16:05:06;45.75;;;34.55;;
51020;SDS011;38907;45.562;8.856;2023-12-20T16:10:09;42.58;;;32.67;;
51020;SDS011;38907;45.562;8.856;2023-12-20T16:15:12;48.67;;;34.47;;
51020;SDS011;38907;45.562;8.856;2023-12-20T16:20:14;44.50;;;34.28;;
51020;SDS011;38907;45.562;8.856;2023-12-20T16:25:16;41.00;;;33.03;;
51020;SDS011;38907;45.562;8.856;2023-12-20T16:30:19;44.42;;;34.83;;
51020;SDS011;38907;45.562;8.856;2023-12-20T16:35:21;67.57;;;48.30;;
51020;SDS011;38907;45.562;8.856;2023-12-20T16:40:23;56.20;;;41.45;;
51020;SDS011;38907;45.562;8.856;2023-12-20T16:45:26;57.92;;;45.42;;
51020;SDS011;38907;45.562;8.856;2023-12-20T16:50:27;59.25;;;48.85;;
51020;SDS011;38907;45.562;8.856;2023-12-20T16:55:29;66.47;;;49.42;;
51020;SDS011;38907;45.562;8.856;2023-12-20T17:00:33;61.53;;;47.90;;
51020;SDS011;38907;45.562;8.856;2023-12-20T17:05:34;49.22;;;39.00;;
51020;SDS011;38907;45.562;8.856;2023-12-20T17:10:36;52.97;;;39.60;;
51020;SDS011;38907;45.562;8.856;2023-12-20T17:15:39;51.83;;;40.75;;
51020;SDS011;38907;45.562;8.856;2023-12-20T17:20:41;55.78;;;42.25;;
51020;SDS011;38907;45.562;8.856;2023-12-20T17:25:43;54.55;;;42.63;;
51020;SDS011;38907;45.562;8.856;2023-12-20T17:30:46;58.05;;;44.10;;
51020;SDS011;38907;45.562;8.856;2023-12-20T17:35:48;69.32;;;44.00;;
51020;SDS011;38907;45.562;8.856;2023-12-20T17:40:50;53.00;;;41.55;;
51020;SDS011;38907;45.562;8.856;2023-12-20T17:45:53;50.00;;;40.60;;
51020;SDS011;38907;45.562;8.856;2023-12-20T17:50:55;50.05;;;42.35;;
51020;SDS011;38907;45.562;8.856;2023-12-20T17:55:58;58.50;;;46.28;;
51020;SDS011;38907;45.562;8.856;2023-12-20T18:01:01;59.65;;;47.85;;
51020;SDS011;38907;45.562;8.856;2023-12-20T18:06:03;62.08;;;50.60;;
51020;SDS011;38907;45.562;8.856;2023-12-20T18:11:05;71.50;;;56.22;;
51020;SDS011;38907;45.562;8.856;2023-12-20T18:16:08;62.85;;;48.85;;
51020;SDS011;38907;45.562;8.856;2023-12-20T18:21:10;90.22;;;72.10;;
51020;SDS011;38907;45.562;8.856;2023-12-20T18:26:12;92.40;;;71.20;;
51020;SDS011;38907;45.562;8.856;2023-12-20T18:31:15;80.72;;;66.53;;
51020;SDS011;38907;45.562;8.856;2023-12-20T18:36:17;88.78;;;67.25;;
51020;SDS011;38907;45.562;8.856;2023-12-20T18:41:19;89.03;;;67.45;;
51020;SDS011;38907;45.562;8.856;2023-12-20T18:46:22;88.90;;;69.90;;
51020;SDS011;38907;45.562;8.856;2023-12-20T18:51:24;86.20;;;66.32;;
51020;SDS011;38907;45.562;8.856;2023-12-20T18:56:26;81.93;;;65.13;;
51020;SDS011;38907;45.562;8.856;2023-12-20T19:01:30;93.05;;;74.30;;
51020;SDS011;38907;45.562;8.856;2023-12-20T19:06:32;87.25;;;70.22;;
51020;SDS011;38907;45.562;8.856;2023-12-20T19:11:33;94.60;;;75.45;;
51020;SDS011;38907;45.562;8.856;2023-12-20T19:16:37;93.65;;;75.00;;
51020;SDS011;38907;45.562;8.856;2023-12-20T19:21:38;96.05;;;76.82;;
51020;SDS011;38907;45.562;8.856;2023-12-20T19:26:42;101.38;;;78.57;;
51020;SDS011;38907;45.562;8.856;2023-12-20T19:31:45;93.15;;;73.25;;
51020;SDS011;38907;45.562;8.856;2023-12-20T19:36:48;96.22;;;76.45;;
51020;SDS011;38907;45.562;8.856;2023-12-20T19:41:49;106.97;;;85.35;;
51020;SDS011;38907;45.562;8.856;2023-12-20T19:46:52;103.30;;;81.05;;
51020;SDS011;38907;45.562;8.856;2023-12-20T19:51:54;113.18;;;82.53;;
51020;SDS011;38907;45.562;8.856;2023-12-20T19:56:56;108.70;;;83.45;;
51020;SDS011;38907;45.562;8.856;2023-12-20T20:01:59;105.47;;;85.00;;
51020;SDS011;38907;45.562;8.856;2023-12-20T20:07:01;84.85;;;69.82;;
51020;SDS011;38907;45.562;8.856;2023-12-20T20:12:09;97.93;;;76.60;;
51020;SDS011;38907;45.562;8.856;2023-12-20T20:17:12;101.35;;;78.38;;
51020;SDS011;38907;45.562;8.856;2023-12-20T20:22:14;102.47;;;81.97;;
51020;SDS011;38907;45.562;8.856;2023-12-20T20:27:17;97.05;;;76.50;;
51020;SDS011;38907;45.562;8.856;2023-12-20T20:32:23;98.60;;;76.97;;
51020;SDS011;38907;45.562;8.856;2023-12-20T20:37:24;99.40;;;78.22;;
51020;SDS011;38907;45.562;8.856;2023-12-20T20:42:26;92.20;;;74.63;;
51020;SDS011;38907;45.562;8.856;2023-12-20T20:47:30;100.25;;;75.47;;
51020;SDS011;38907;45.562;8.856;2023-12-20T20:52:31;95.80;;;74.88;;
51020;SDS011;38907;45.562;8.856;2023-12-20T20:57:33;100.07;;;81.30;;
51020;SDS011;38907;45.562;8.856;2023-12-20T21:02:36;105.00;;;85.82;;
51020;SDS011;38907;45.562;8.856;2023-12-20T21:07:38;97.53;;;77.60;;
51020;SDS011;38907;45.562;8.856;2023-12-20T21:12:44;105.70;;;82.78;;
51020;SDS011;38907;45.562;8.856;2023-12-20T21:17:47;88.85;;;74.65;;
51020;SDS011;38907;45.562;8.856;2023-12-20T21:22:49;91.97;;;76.40;;
51020;SDS011;38907;45.562;8.856;2023-12-20T21:27:51;91.35;;;73.35;;
51020;SDS011;38907;45.562;8.856;2023-12-20T21:32:54;91.85;;;73.95;;
51020;SDS011;38907;45.562;8.856;2023-12-20T21:37:56;95.82;;;75.22;;
51020;SDS011;38907;45.562;8.856;2023-12-20T21:42:58;98.47;;;77.35;;
51020;SDS011;38907;45.562;8.856;2023-12-20T21:48:02;102.32;;;77.28;;
51020;SDS011;38907;45.562;8.856;2023-12-20T21:53:05;95.72;;;72.50;;
51020;SDS011;38907;45.562;8.856;2023-12-20T21:58:10;88.82;;;69.90;;
51020;SDS011;38907;45.562;8.856;2023-12-20T22:03:13;94.53;;;74.72;;
51020;SDS011;38907;45.562;8.856;2023-12-20T22:08:14;120.65;;;95.55;;
51020;SDS011;38907;45.562;8.856;2023-12-20T22:13:16;100.70;;;79.80;;
51020;SDS011;38907;45.562;8.856;2023-12-20T22:18:19;107.50;;;76.65;;
51020;SDS011;38907;45.562;8.856;2023-12-20T22:23:21;101.78;;;80.43;;
51020;SDS011;38907;45.562;8.856;2023-12-20T22:28:23;104.05;;;78.22;;
51020;SDS011;38907;45.562;8.856;2023-12-20T22:33:26;100.68;;;75.93;;
51020;SDS011;38907;45.562;8.856;2023-12-20T22:38:28;94.88;;;74.10;;
51020;SDS011;38907;45.562;8.856;2023-12-20T22:43:30;89.20;;;70.22;;
51020;SDS011;38907;45.562;8.856;2023-12-20T22:48:34;95.55;;;76.13;;
51020;SDS011;38907;45.562;8.856;2023-12-20T22:53:35;101.20;;;78.13;;
51020;SDS011;38907;45.562;8.856;2023-12-20T22:58:37;95.20;;;75.22;;
51020;SDS011;38907;45.562;8.856;2023-12-20T23:03:40;96.18;;;76.70;;
51020;SDS011;38907;45.562;8.856;2023-12-20T23:08:42;112.22;;;87.32;;
51020;SDS011;38907;45.562;8.856;2023-12-20T23:13:44;110.43;;;84.70;;
51020;SDS011;38907;45.562;8.856;2023-12-20T23:18:47;110.95;;;87.00;;
51020;SDS011;38907;45.562;8.856;2023-12-20T23:23:49;111.35;;;84.35;;
51020;SDS011;38907;45.562;8.856;2023-12-20T23:28:51;119.50;;;89.35;;
51020;SDS011;38907;45.562;8.856;2023-12-20T23:33:54;107.43;;;83.72;;
51020;SDS011;38907;45.562;8.856;2023-12-20T23:38:56;102.18;;;81.07;;
51020;SDS011;38907;45.562;8.856;2023-12-20T23:43:58;112.05;;;84.03;;
51020;SDS011;38907;45.562;8.856;2023-12-20T23:49:01;107.10;;;83.05;;
51020;SDS011;38907;45.562;8.856;2023-12-20T23:54:03;110.00;;;81.20;;
51020;SDS011;38907;45.562;8.856;2023-12-20T23:59:05;102.00;;;78.57;;
